»·PEaware :: N653SL KPHX-KBUR

N653SL :: KPHX-KBUR

FLIGHT INFORMATION

Flight Status: Arrived
Operator: Privately registered:
United States
More flights under this callsign
Pilot: David I. (28153)
Aircraft: CESSNA 550 CITATION 2/S2/BRAVO
(C550)
More flights by this aircraft type
Origin: KPHX Phoenix Sky Harbor Intl
United States
Destination: KBUR Bob Hope-Burbank
United States
More flights between these airports :: More routes between these airports
Route: KEENS2 HRRBR PHRED THRNE3
File this flight plan on PilotEdge
Remarks:
Altitude:
(Current/Filed)
28,000ft
Speed:
(Current/Filed)
350kts
Departed: 31-May-20 08:58 AM
Arrived: 31-May-20 10:07 AM
Distance/Time
Traveled:
320nm/1:09
Distance/Time
To Go:
Arrived

Flight Plot

Page will automatically refresh every two minutes.

Flight plan parsing failed; only flown route is shown


Map Options




Map Legend


Flown Route
Filed Route
Departure Airport
Arrival Airport
Navaid (VOR, NDB)
Fix

Horizontal Profiles

Position Reports

Time Latitude Longitude Heading Altitude Ground
Speed
31-May-20 08:34 33.425626 -112.021104 176 1118ft 0kts
31-May-20 08:35 33.425626 -112.021104 176 1118ft 0kts
31-May-20 08:36 33.425626 -112.021104 176 1118ft 0kts
31-May-20 08:37 33.425626 -112.021104 176 1118ft 0kts
31-May-20 08:38 33.425626 -112.021104 176 1118ft 0kts
31-May-20 08:38 33.425626 -112.021104 176 1118ft 0kts
31-May-20 08:40 33.425626 -112.021104 176 1118ft 0kts
31-May-20 08:41 33.425626 -112.021104 176 1118ft 0kts
31-May-20 08:41 33.425626 -112.021104 176 1118ft 0kts
31-May-20 08:43 33.425626 -112.021104 176 1118ft 0kts
31-May-20 08:43 33.425626 -112.021104 176 1118ft 0kts
31-May-20 08:44 33.425626 -112.021104 176 1118ft 0kts
31-May-20 08:46 33.425626 -112.021104 176 1118ft 0kts
31-May-20 08:46 33.425626 -112.021104 176 1118ft 0kts
31-May-20 08:47 33.425626 -112.021104 176 1118ft 0kts
31-May-20 08:48 33.425626 -112.021104 176 1118ft 0kts
31-May-20 08:49 33.425626 -112.021104 176 1118ft 0kts
31-May-20 08:50 33.425626 -112.021104 176 1118ft 0kts
31-May-20 08:51 33.425626 -112.021104 176 1118ft 0kts
31-May-20 08:52 33.425378 -112.021609 292 1118ft 4kts
31-May-20 08:53 33.426090 -112.021159 28 1118ft 5kts
31-May-20 08:54 33.427761 -112.021996 270 1118ft 9kts
31-May-20 08:55 33.427759 -112.025552 269 1115ft 11kts
31-May-20 08:56 33.428006 -112.026919 337 1115ft 0kts
31-May-20 08:57 33.428862 -112.017810 90 1124ft 127kts
31-May-20 08:58 33.429918 -111.961822 87 3902ft 206kts
31-May-20 08:59 33.431907 -111.882894 100 6853ft 271kts
31-May-20 09:00 33.371870 -111.848677 213 8735ft 279kts
31-May-20 09:01 33.357179 -111.932570 274 10733ft 294kts
31-May-20 09:02 33.366614 -112.037628 279 12651ft 334kts
31-May-20 09:03 33.383121 -112.143814 280 14544ft 316kts
31-May-20 09:04 33.398759 -112.248539 280 16451ft 324kts
31-May-20 09:05 33.414646 -112.356621 280 18358ft 334kts
31-May-20 09:06 33.430675 -112.466458 280 20261ft 338kts
31-May-20 09:07 33.447209 -112.581837 278 21000ft 370kts
31-May-20 09:08 33.451309 -112.681599 267 21062ft 365kts
31-May-20 09:09 33.454274 -112.797926 273 22843ft 346kts
31-May-20 09:10 33.473583 -112.911487 278 24347ft 348kts
31-May-20 09:11 33.494600 -113.023700 277 25848ft 343kts
31-May-20 09:12 33.515063 -113.133952 277 27346ft 335kts
31-May-20 09:13 33.535401 -113.244435 278 27936ft 352kts
31-May-20 09:14 33.557149 -113.362850 278 27935ft 370kts
31-May-20 09:15 33.579465 -113.485023 278 27934ft 378kts
31-May-20 09:16 33.602453 -113.608988 278 27925ft 382kts
31-May-20 09:17 33.625716 -113.733954 278 27915ft 383kts
31-May-20 09:18 33.647258 -113.859092 272 27909ft 381kts
31-May-20 09:19 33.648278 -113.985467 265 27909ft 378kts
31-May-20 09:20 33.646836 -114.111851 268 27909ft 379kts
31-May-20 09:21 33.657413 -114.238069 273 27908ft 381kts
31-May-20 09:22 33.669911 -114.364864 273 27907ft 381kts
31-May-20 09:23 33.682296 -114.491429 273 27907ft 381kts
31-May-20 09:24 33.694532 -114.617760 273 27906ft 381kts
31-May-20 09:25 33.706679 -114.744541 272 27911ft 381kts
31-May-20 09:26 33.718661 -114.871004 272 27910ft 382kts
31-May-20 09:27 33.730525 -114.997619 272 27910ft 382kts
31-May-20 09:28 33.742286 -115.124590 272 27909ft 382kts
31-May-20 09:29 33.754651 -115.252032 273 27903ft 383kts
31-May-20 09:30 33.767617 -115.378950 273 27884ft 384kts
31-May-20 09:31 33.779755 -115.497134 273 27526ft 382kts
31-May-20 09:32 33.792641 -115.622034 273 25982ft 372kts
31-May-20 09:33 33.803953 -115.738844 272 24855ft 369kts
31-May-20 09:34 33.815879 -115.861356 272 23707ft 367kts
31-May-20 09:35 33.828261 -115.983112 272 22621ft 366kts
31-May-20 09:36 33.840360 -116.103966 272 21531ft 361kts
31-May-20 09:37 33.850219 -116.224726 271 20208ft 363kts
31-May-20 09:38 33.859247 -116.344249 271 18643ft 344kts
31-May-20 09:39 33.869456 -116.455496 272 16749ft 332kts
31-May-20 09:40 33.881359 -116.564310 277 15716ft 324kts
31-May-20 09:41 33.899112 -116.671107 276 14530ft 328kts
31-May-20 09:42 33.915917 -116.776300 276 13381ft 329kts
31-May-20 09:43 33.932703 -116.882670 276 12997ft 317kts
31-May-20 09:44 33.950938 -116.986521 282 12969ft 318kts
31-May-20 09:45 33.975635 -117.090115 284 11769ft 306kts
31-May-20 09:46 33.998578 -117.185779 285 10351ft 290kts
31-May-20 09:47 34.020223 -117.276244 285 10004ft 270kts
31-May-20 09:48 34.041230 -117.364398 285 10006ft 277kts
31-May-20 09:49 34.062737 -117.454948 285 10005ft 281kts
31-May-20 09:50 34.080616 -117.546766 280 10001ft 281kts
31-May-20 09:51 34.094401 -117.635409 280 9170ft 254kts
31-May-20 09:52 34.107371 -117.719583 280 8168ft 257kts
31-May-20 09:53 34.120340 -117.804203 280 8007ft 253kts
31-May-20 09:54 34.133125 -117.887994 280 8008ft 253kts
31-May-20 09:55 34.145839 -117.971729 280 8013ft 252kts
31-May-20 09:56 34.147027 -118.055866 265 8011ft 252kts
31-May-20 09:57 34.140470 -118.140232 265 8007ft 253kts
31-May-20 09:58 34.135029 -118.225807 265 8003ft 257kts
31-May-20 09:59 34.131527 -118.312354 265 7999ft 257kts
31-May-20 10:00 34.128085 -118.397603 265 7374ft 242kts
31-May-20 10:01 34.128191 -118.474728 302 6152ft 218kts
31-May-20 10:02 34.172994 -118.468650 34 4629ft 162kts
31-May-20 10:03 34.197233 -118.431986 73 2914ft 112kts
31-May-20 10:04 34.198300 -118.396973 90 1305ft 90kts
31-May-20 10:05 34.197912 -118.368951 92 803ft 82kts
31-May-20 10:06 34.198485 -118.357941 1 782ft 4kts
31-May-20 10:07 34.198884 -118.359505 270 782ft 9kts
31-May-20 10:08 34.198937 -118.363379 270 782ft 9kts
31-May-20 10:09 34.199091 -118.364506 330 782ft 1kts
31-May-20 10:10 34.200047 -118.364112 81 782ft 3kts
31-May-20 10:11 34.200020 -118.364059 345 782ft 2kts
31-May-20 10:12 34.200342 -118.364241 230 782ft 0kts
31-May-20 10:13 34.200312 -118.364328 220 782ft 0kts
31-May-20 10:14 34.200312 -118.364328 220 782ft 0kts

Navigation Log

Ident Type
Flight plan parsing failed, navigation log unavailable